sensor_id;sensor_type;location;lat;lon;timestamp;pressure;altitude;pressure_sealevel;temperature
65569;BMP180;52211;50.154;8.682;2022-12-07T00:01:56;100141.00;;;10.00
65569;BMP180;52211;50.154;8.682;2022-12-07T00:04:23;100134.00;;;10.00
65569;BMP180;52211;50.154;8.682;2022-12-07T00:06:53;100140.00;;;10.00
65569;BMP180;52211;50.154;8.682;2022-12-07T00:09:22;100125.00;;;10.00
65569;BMP180;52211;50.154;8.682;2022-12-07T00:11:51;100130.00;;;10.00
65569;BMP180;52211;50.154;8.682;2022-12-07T00:14:21;100132.00;;;10.00
65569;BMP180;52211;50.154;8.682;2022-12-07T00:16:53;100132.00;;;10.00
65569;BMP180;52211;50.154;8.682;2022-12-07T00:19:22;100128.00;;;10.00
65569;BMP180;52211;50.154;8.682;2022-12-07T00:21:49;100120.00;;;10.00
65569;BMP180;52211;50.154;8.682;2022-12-07T00:24:19;100119.00;;;10.00
65569;BMP180;52211;50.154;8.682;2022-12-07T00:26:45;100116.00;;;10.00
65569;BMP180;52211;50.154;8.682;2022-12-07T00:29:19;100115.00;;;10.00
65569;BMP180;52211;50.154;8.682;2022-12-07T00:31:47;100107.00;;;10.00
65569;BMP180;52211;50.154;8.682;2022-12-07T00:34:20;100100.00;;;10.00
65569;BMP180;52211;50.154;8.682;2022-12-07T00:36:53;100095.00;;;9.90
65569;BMP180;52211;50.154;8.682;2022-12-07T00:39:21;100089.00;;;9.90
65569;BMP180;52211;50.154;8.682;2022-12-07T00:41:50;100090.00;;;9.90
65569;BMP180;52211;50.154;8.682;2022-12-07T00:44:19;100092.00;;;9.90
65569;BMP180;52211;50.154;8.682;2022-12-07T00:46:48;100085.00;;;9.90
65569;BMP180;52211;50.154;8.682;2022-12-07T00:49:22;100086.00;;;9.90
65569;BMP180;52211;50.154;8.682;2022-12-07T00:51:51;100094.00;;;9.90
65569;BMP180;52211;50.154;8.682;2022-12-07T00:54:25;100096.00;;;9.90
65569;BMP180;52211;50.154;8.682;2022-12-07T00:56:59;100088.00;;;9.90
65569;BMP180;52211;50.154;8.682;2022-12-07T00:59:26;100093.00;;;9.90
65569;BMP180;52211;50.154;8.682;2022-12-07T01:01:53;100087.00;;;9.90
65569;BMP180;52211;50.154;8.682;2022-12-07T01:04:22;100087.00;;;9.90
65569;BMP180;52211;50.154;8.682;2022-12-07T01:06:51;100097.00;;;9.80
65569;BMP180;52211;50.154;8.682;2022-12-07T01:09:21;100090.00;;;9.80
65569;BMP180;52211;50.154;8.682;2022-12-07T01:11:48;100098.00;;;9.80
65569;BMP180;52211;50.154;8.682;2022-12-07T01:14:17;100075.00;;;9.70
65569;BMP180;52211;50.154;8.682;2022-12-07T01:16:44;100073.00;;;9.70
65569;BMP180;52211;50.154;8.682;2022-12-07T01:19:13;100062.00;;;9.70
65569;BMP180;52211;50.154;8.682;2022-12-07T01:21:40;100066.00;;;9.70
65569;BMP180;52211;50.154;8.682;2022-12-07T01:24:11;100065.00;;;9.60
65569;BMP180;52211;50.154;8.682;2022-12-07T01:26:40;100064.00;;;9.60
65569;BMP180;52211;50.154;8.682;2022-12-07T01:29:07;100068.00;;;9.60
65569;BMP180;52211;50.154;8.682;2022-12-07T01:31:34;100066.00;;;9.50
65569;BMP180;52211;50.154;8.682;2022-12-07T01:34:06;100079.00;;;9.50
65569;BMP180;52211;50.154;8.682;2022-12-07T01:36:38;100073.00;;;9.50
65569;BMP180;52211;50.154;8.682;2022-12-07T01:39:07;100076.00;;;9.50
65569;BMP180;52211;50.154;8.682;2022-12-07T01:41:41;100086.00;;;9.50
65569;BMP180;52211;50.154;8.682;2022-12-07T01:44:28;100086.00;;;9.40
65569;BMP180;52211;50.154;8.682;2022-12-07T01:47:03;100088.00;;;9.40
65569;BMP180;52211;50.154;8.682;2022-12-07T01:49:37;100094.00;;;9.40
65569;BMP180;52211;50.154;8.682;2022-12-07T01:52:30;100090.00;;;9.40
65569;BMP180;52211;50.154;8.682;2022-12-07T01:55:07;100081.00;;;9.40
65569;BMP180;52211;50.154;8.682;2022-12-07T01:57:43;100078.00;;;9.40
65569;BMP180;52211;50.154;8.682;2022-12-07T02:00:13;100075.00;;;9.40
65569;BMP180;52211;50.154;8.682;2022-12-07T02:03:16;100073.00;;;9.30
65569;BMP180;52211;50.154;8.682;2022-12-07T02:05:51;100068.00;;;9.30
65569;BMP180;52211;50.154;8.682;2022-12-07T02:08:18;100065.00;;;9.30
65569;BMP180;52211;50.154;8.682;2022-12-07T02:10:46;100063.00;;;9.30
65569;BMP180;52211;50.154;8.682;2022-12-07T02:13:26;100067.00;;;9.30
65569;BMP180;52211;50.154;8.682;2022-12-07T02:22:18;100054.00;;;9.20
65569;BMP180;52211;50.154;8.682;2022-12-07T02:28:12;100042.00;;;9.20
65569;BMP180;52211;50.154;8.682;2022-12-07T02:30:49;100044.00;;;9.20
65569;BMP180;52211;50.154;8.682;2022-12-07T02:33:43;100044.00;;;9.20
65569;BMP180;52211;50.154;8.682;2022-12-07T02:36:32;100045.00;;;9.20
65569;BMP180;52211;50.154;8.682;2022-12-07T02:39:19;100045.00;;;9.20
65569;BMP180;52211;50.154;8.682;2022-12-07T02:41:54;100049.00;;;9.20
65569;BMP180;52211;50.154;8.682;2022-12-07T02:44:27;100042.00;;;9.20
65569;BMP180;52211;50.154;8.682;2022-12-07T02:47:11;100048.00;;;9.20
65569;BMP180;52211;50.154;8.682;2022-12-07T02:49:40;100050.00;;;9.20
65569;BMP180;52211;50.154;8.682;2022-12-07T02:52:09;100053.00;;;9.20
65569;BMP180;52211;50.154;8.682;2022-12-07T02:54:37;100057.00;;;9.20
65569;BMP180;52211;50.154;8.682;2022-12-07T02:57:59;100055.00;;;9.20
65569;BMP180;52211;50.154;8.682;2022-12-07T03:00:19;100039.00;;;9.20
65569;BMP180;52211;50.154;8.682;2022-12-07T03:02:58;100042.00;;;9.20
65569;BMP180;52211;50.154;8.682;2022-12-07T03:11:55;100037.00;;;9.20
65569;BMP180;52211;50.154;8.682;2022-12-07T03:14:34;100027.00;;;9.10
65569;BMP180;52211;50.154;8.682;2022-12-07T03:17:16;100029.00;;;9.10
65569;BMP180;52211;50.154;8.682;2022-12-07T03:19:52;100025.00;;;9.10
65569;BMP180;52211;50.154;8.682;2022-12-07T03:22:23;100039.00;;;9.10
65569;BMP180;52211;50.154;8.682;2022-12-07T03:24:57;100030.00;;;9.10
65569;BMP180;52211;50.154;8.682;2022-12-07T03:27:45;100028.00;;;9.10
65569;BMP180;52211;50.154;8.682;2022-12-07T03:30:20;100029.00;;;9.20
65569;BMP180;52211;50.154;8.682;2022-12-07T03:33:06;100025.00;;;9.20
65569;BMP180;52211;50.154;8.682;2022-12-07T03:35:51;100022.00;;;9.10
65569;BMP180;52211;50.154;8.682;2022-12-07T03:38:33;100018.00;;;9.10
65569;BMP180;52211;50.154;8.682;2022-12-07T03:41:16;100017.00;;;9.10
65569;BMP180;52211;50.154;8.682;2022-12-07T03:43:48;100014.00;;;9.20
65569;BMP180;52211;50.154;8.682;2022-12-07T03:47:06;100011.00;;;9.10
65569;BMP180;52211;50.154;8.682;2022-12-07T03:52:28;100018.00;;;9.20
65569;BMP180;52211;50.154;8.682;2022-12-07T03:55:02;100017.00;;;9.20
65569;BMP180;52211;50.154;8.682;2022-12-07T03:57:38;100008.00;;;9.20
65569;BMP180;52211;50.154;8.682;2022-12-07T04:00:09;100004.00;;;9.20
65569;BMP180;52211;50.154;8.682;2022-12-07T04:02:44;100005.00;;;9.20
65569;BMP180;52211;50.154;8.682;2022-12-07T04:05:15;99999.00;;;9.20
65569;BMP180;52211;50.154;8.682;2022-12-07T04:07:45;100000.00;;;9.20
65569;BMP180;52211;50.154;8.682;2022-12-07T04:10:14;99994.00;;;9.20
65569;BMP180;52211;50.154;8.682;2022-12-07T04:12:41;100004.00;;;9.20
65569;BMP180;52211;50.154;8.682;2022-12-07T04:15:11;100009.00;;;9.20
65569;BMP180;52211;50.154;8.682;2022-12-07T04:17:40;100011.00;;;9.20
65569;BMP180;52211;50.154;8.682;2022-12-07T04:20:08;100016.00;;;9.30
65569;BMP180;52211;50.154;8.682;2022-12-07T04:22:38;100012.00;;;9.30
65569;BMP180;52211;50.154;8.682;2022-12-07T04:25:05;100014.00;;;9.30
65569;BMP180;52211;50.154;8.682;2022-12-07T04:27:37;100012.00;;;9.30
65569;BMP180;52211;50.154;8.682;2022-12-07T04:30:08;100004.00;;;9.30
65569;BMP180;52211;50.154;8.682;2022-12-07T04:32:35;100013.00;;;9.30
65569;BMP180;52211;50.154;8.682;2022-12-07T04:35:02;100007.00;;;9.40
65569;BMP180;52211;50.154;8.682;2022-12-07T04:37:30;100013.00;;;9.40
65569;BMP180;52211;50.154;8.682;2022-12-07T04:40:01;100014.00;;;9.40
65569;BMP180;52211;50.154;8.682;2022-12-07T04:42:33;100021.00;;;9.50
65569;BMP180;52211;50.154;8.682;2022-12-07T04:45:03;100011.00;;;9.50
65569;BMP180;52211;50.154;8.682;2022-12-07T04:47:30;100012.00;;;9.50
65569;BMP180;52211;50.154;8.682;2022-12-07T04:49:59;100004.00;;;9.50
65569;BMP180;52211;50.154;8.682;2022-12-07T04:52:29;100009.00;;;9.50
65569;BMP180;52211;50.154;8.682;2022-12-07T04:54:56;100000.00;;;9.50
65569;BMP180;52211;50.154;8.682;2022-12-07T04:57:23;100005.00;;;9.50
65569;BMP180;52211;50.154;8.682;2022-12-07T04:59:50;99997.00;;;9.50
65569;BMP180;52211;50.154;8.682;2022-12-07T05:02:18;99993.00;;;9.50
65569;BMP180;52211;50.154;8.682;2022-12-07T05:04:48;99993.00;;;9.50
65569;BMP180;52211;50.154;8.682;2022-12-07T05:07:17;99991.00;;;9.40
65569;BMP180;52211;50.154;8.682;2022-12-07T05:09:44;99998.00;;;9.40
65569;BMP180;52211;50.154;8.682;2022-12-07T05:12:13;99998.00;;;9.40
65569;BMP180;52211;50.154;8.682;2022-12-07T05:14:42;99995.00;;;9.40
65569;BMP180;52211;50.154;8.682;2022-12-07T05:17:09;100003.00;;;9.30
65569;BMP180;52211;50.154;8.682;2022-12-07T05:19:39;100011.00;;;9.30
65569;BMP180;52211;50.154;8.682;2022-12-07T05:22:10;100008.00;;;9.40
65569;BMP180;52211;50.154;8.682;2022-12-07T05:24:42;100009.00;;;9.40
65569;BMP180;52211;50.154;8.682;2022-12-07T05:27:09;100016.00;;;9.40
65569;BMP180;52211;50.154;8.682;2022-12-07T05:29:36;100005.00;;;9.40
65569;BMP180;52211;50.154;8.682;2022-12-07T05:32:05;99997.00;;;9.50
65569;BMP180;52211;50.154;8.682;2022-12-07T05:34:35;100001.00;;;9.50
65569;BMP180;52211;50.154;8.682;2022-12-07T05:37:05;100003.00;;;9.50
65569;BMP180;52211;50.154;8.682;2022-12-07T05:39:32;100003.00;;;9.50
65569;BMP180;52211;50.154;8.682;2022-12-07T05:41:59;99996.00;;;9.50
65569;BMP180;52211;50.154;8.682;2022-12-07T05:44:43;100009.00;;;9.50
65569;BMP180;52211;50.154;8.682;2022-12-07T05:47:12;100005.00;;;9.50
65569;BMP180;52211;50.154;8.682;2022-12-07T05:49:42;100006.00;;;9.50
65569;BMP180;52211;50.154;8.682;2022-12-07T05:52:09;100005.00;;;9.50
65569;BMP180;52211;50.154;8.682;2022-12-07T05:54:38;99998.00;;;9.50
65569;BMP180;52211;50.154;8.682;2022-12-07T05:57:08;99996.00;;;9.60
65569;BMP180;52211;50.154;8.682;2022-12-07T05:59:34;99993.00;;;9.60
65569;BMP180;52211;50.154;8.682;2022-12-07T06:02:07;99995.00;;;9.60
65569;BMP180;52211;50.154;8.682;2022-12-07T06:04:40;99992.00;;;9.60
65569;BMP180;52211;50.154;8.682;2022-12-07T06:07:11;99992.00;;;9.60
65569;BMP180;52211;50.154;8.682;2022-12-07T06:09:43;99996.00;;;9.60
65569;BMP180;52211;50.154;8.682;2022-12-07T06:12:13;99994.00;;;9.60
65569;BMP180;52211;50.154;8.682;2022-12-07T06:15:05;99998.00;;;9.60
65569;BMP180;52211;50.154;8.682;2022-12-07T06:17:36;99989.00;;;9.60
65569;BMP180;52211;50.154;8.682;2022-12-07T06:20:08;99989.00;;;9.60
65569;BMP180;52211;50.154;8.682;2022-12-07T06:22:35;99995.00;;;9.70
65569;BMP180;52211;50.154;8.682;2022-12-07T06:25:02;100003.00;;;9.60
65569;BMP180;52211;50.154;8.682;2022-12-07T06:27:34;100001.00;;;9.70
65569;BMP180;52211;50.154;8.682;2022-12-07T06:30:05;100004.00;;;9.70
65569;BMP180;52211;50.154;8.682;2022-12-07T06:32:33;100004.00;;;9.70
65569;BMP180;52211;50.154;8.682;2022-12-07T06:35:05;99994.00;;;9.70
65569;BMP180;52211;50.154;8.682;2022-12-07T06:37:37;99993.00;;;9.80
65569;BMP180;52211;50.154;8.682;2022-12-07T06:40:05;99997.00;;;9.80
65569;BMP180;52211;50.154;8.682;2022-12-07T06:42:32;99996.00;;;9.80
65569;BMP180;52211;50.154;8.682;2022-12-07T06:44:59;100002.00;;;9.80
65569;BMP180;52211;50.154;8.682;2022-12-07T06:47:28;100006.00;;;9.80
65569;BMP180;52211;50.154;8.682;2022-12-07T06:50:11;100002.00;;;9.90
65569;BMP180;52211;50.154;8.682;2022-12-07T06:52:44;100004.00;;;9.90
65569;BMP180;52211;50.154;8.682;2022-12-07T06:55:11;100013.00;;;9.90
65569;BMP180;52211;50.154;8.682;2022-12-07T06:57:42;100004.00;;;9.90
65569;BMP180;52211;50.154;8.682;2022-12-07T07:00:12;100015.00;;;9.90
65569;BMP180;52211;50.154;8.682;2022-12-07T07:02:47;100012.00;;;10.00
65569;BMP180;52211;50.154;8.682;2022-12-07T07:05:19;100020.00;;;10.00
65569;BMP180;52211;50.154;8.682;2022-12-07T07:07:50;100016.00;;;10.00
65569;BMP180;52211;50.154;8.682;2022-12-07T07:10:38;100025.00;;;10.00
65569;BMP180;52211;50.154;8.682;2022-12-07T07:13:08;100024.00;;;10.00
65569;BMP180;52211;50.154;8.682;2022-12-07T07:15:37;100027.00;;;10.00
65569;BMP180;52211;50.154;8.682;2022-12-07T07:18:09;100025.00;;;10.00
65569;BMP180;52211;50.154;8.682;2022-12-07T07:20:37;100029.00;;;10.00
65569;BMP180;52211;50.154;8.682;2022-12-07T07:23:07;100028.00;;;10.00
65569;BMP180;52211;50.154;8.682;2022-12-07T07:25:36;100024.00;;;10.00
65569;BMP180;52211;50.154;8.682;2022-12-07T07:28:06;100023.00;;;10.00
65569;BMP180;52211;50.154;8.682;2022-12-07T07:30:33;100026.00;;;10.00
65569;BMP180;52211;50.154;8.682;2022-12-07T07:33:04;100019.00;;;10.00
65569;BMP180;52211;50.154;8.682;2022-12-07T07:35:34;100026.00;;;10.00
65569;BMP180;52211;50.154;8.682;2022-12-07T07:38:07;100025.00;;;10.00
65569;BMP180;52211;50.154;8.682;2022-12-07T07:40:34;100026.00;;;10.00
65569;BMP180;52211;50.154;8.682;2022-12-07T07:43:04;100025.00;;;10.00
65569;BMP180;52211;50.154;8.682;2022-12-07T07:45:31;100023.00;;;10.00
65569;BMP180;52211;50.154;8.682;2022-12-07T07:47:58;100020.00;;;10.00
65569;BMP180;52211;50.154;8.682;2022-12-07T07:50:29;100025.00;;;10.00
65569;BMP180;52211;50.154;8.682;2022-12-07T07:53:01;100025.00;;;10.10
65569;BMP180;52211;50.154;8.682;2022-12-07T07:55:32;100035.00;;;10.10
65569;BMP180;52211;50.154;8.682;2022-12-07T07:58:00;100031.00;;;10.10
65569;BMP180;52211;50.154;8.682;2022-12-07T08:00:29;100028.00;;;10.10
65569;BMP180;52211;50.154;8.682;2022-12-07T08:02:58;100035.00;;;10.20
65569;BMP180;52211;50.154;8.682;2022-12-07T08:05:28;100035.00;;;10.20
65569;BMP180;52211;50.154;8.682;2022-12-07T08:07:57;100026.00;;;10.20
65569;BMP180;52211;50.154;8.682;2022-12-07T08:10:24;100023.00;;;10.20
65569;BMP180;52211;50.154;8.682;2022-12-07T08:12:54;100030.00;;;10.20
65569;BMP180;52211;50.154;8.682;2022-12-07T08:15:47;100030.00;;;10.20
65569;BMP180;52211;50.154;8.682;2022-12-07T08:18:17;100025.00;;;10.20
65569;BMP180;52211;50.154;8.682;2022-12-07T08:20:44;100027.00;;;10.20
65569;BMP180;52211;50.154;8.682;2022-12-07T08:23:13;100042.00;;;10.20
65569;BMP180;52211;50.154;8.682;2022-12-07T08:25:44;100048.00;;;10.20
65569;BMP180;52211;50.154;8.682;2022-12-07T08:28:16;100046.00;;;10.20
65569;BMP180;52211;50.154;8.682;2022-12-07T08:30:45;100049.00;;;10.20
65569;BMP180;52211;50.154;8.682;2022-12-07T08:33:15;100035.00;;;10.20
65569;BMP180;52211;50.154;8.682;2022-12-07T08:35:41;100038.00;;;10.20
65569;BMP180;52211;50.154;8.682;2022-12-07T08:38:08;100037.00;;;10.20
65569;BMP180;52211;50.154;8.682;2022-12-07T08:40:35;100037.00;;;10.20
65569;BMP180;52211;50.154;8.682;2022-12-07T08:43:04;100033.00;;;10.30
65569;BMP180;52211;50.154;8.682;2022-12-07T08:45:36;100039.00;;;10.30
65569;BMP180;52211;50.154;8.682;2022-12-07T08:48:12;100043.00;;;10.30
65569;BMP180;52211;50.154;8.682;2022-12-07T08:50:42;100047.00;;;10.30
65569;BMP180;52211;50.154;8.682;2022-12-07T08:53:18;100034.00;;;10.30
65569;BMP180;52211;50.154;8.682;2022-12-07T08:55:46;100049.00;;;10.30
65569;BMP180;52211;50.154;8.682;2022-12-07T08:58:16;100043.00;;;10.30
65569;BMP180;52211;50.154;8.682;2022-12-07T09:00:45;100046.00;;;10.30
65569;BMP180;52211;50.154;8.682;2022-12-07T09:03:14;100046.00;;;10.30
65569;BMP180;52211;50.154;8.682;2022-12-07T09:05:47;100042.00;;;10.30
65569;BMP180;52211;50.154;8.682;2022-12-07T09:08:17;100041.00;;;10.30
65569;BMP180;52211;50.154;8.682;2022-12-07T09:10:48;100042.00;;;10.40
65569;BMP180;52211;50.154;8.682;2022-12-07T09:13:20;100044.00;;;10.40
65569;BMP180;52211;50.154;8.682;2022-12-07T09:15:49;100045.00;;;10.40
65569;BMP180;52211;50.154;8.682;2022-12-07T09:18:20;100044.00;;;10.30
65569;BMP180;52211;50.154;8.682;2022-12-07T09:20:52;100042.00;;;10.30
65569;BMP180;52211;50.154;8.682;2022-12-07T09:23:21;100043.00;;;10.40
65569;BMP180;52211;50.154;8.682;2022-12-07T09:25:50;100046.00;;;10.40
65569;BMP180;52211;50.154;8.682;2022-12-07T09:28:19;100045.00;;;10.40
65569;BMP180;52211;50.154;8.682;2022-12-07T09:30:49;100061.00;;;10.50
65569;BMP180;52211;50.154;8.682;2022-12-07T09:33:36;100065.00;;;10.50
65569;BMP180;52211;50.154;8.682;2022-12-07T09:36:06;100069.00;;;10.50
65569;BMP180;52211;50.154;8.682;2022-12-07T09:38:35;100065.00;;;10.60
65569;BMP180;52211;50.154;8.682;2022-12-07T09:41:09;100063.00;;;10.60
65569;BMP180;52211;50.154;8.682;2022-12-07T09:43:42;100064.00;;;10.70
65569;BMP180;52211;50.154;8.682;2022-12-07T09:46:18;100051.00;;;10.80
65569;BMP180;52211;50.154;8.682;2022-12-07T09:48:50;100055.00;;;10.80
65569;BMP180;52211;50.154;8.682;2022-12-07T09:51:24;100060.00;;;10.90
65569;BMP180;52211;50.154;8.682;2022-12-07T09:54:01;100058.00;;;10.90
65569;BMP180;52211;50.154;8.682;2022-12-07T09:56:32;100055.00;;;10.90
65569;BMP180;52211;50.154;8.682;2022-12-07T09:59:04;100043.00;;;10.90
65569;BMP180;52211;50.154;8.682;2022-12-07T10:01:38;100046.00;;;11.00
65569;BMP180;52211;50.154;8.682;2022-12-07T10:04:18;100046.00;;;11.00
65569;BMP180;52211;50.154;8.682;2022-12-07T10:06:48;100052.00;;;11.00
65569;BMP180;52211;50.154;8.682;2022-12-07T10:09:26;100041.00;;;11.10
65569;BMP180;52211;50.154;8.682;2022-12-07T10:12:08;100040.00;;;11.20
65569;BMP180;52211;50.154;8.682;2022-12-07T10:14:40;100043.00;;;11.30
65569;BMP180;52211;50.154;8.682;2022-12-07T10:17:48;100051.00;;;11.40
65569;BMP180;52211;50.154;8.682;2022-12-07T10:20:25;100036.00;;;11.50
65569;BMP180;52211;50.154;8.682;2022-12-07T10:23:03;100030.00;;;11.60
65569;BMP180;52211;50.154;8.682;2022-12-07T10:25:36;100033.00;;;11.70
65569;BMP180;52211;50.154;8.682;2022-12-07T10:31:02;100029.00;;;11.70
65569;BMP180;52211;50.154;8.682;2022-12-07T10:33:58;100023.00;;;11.70
65569;BMP180;52211;50.154;8.682;2022-12-07T10:41:31;100027.00;;;11.80
65569;BMP180;52211;50.154;8.682;2022-12-07T10:43:58;100033.00;;;11.80
65569;BMP180;52211;50.154;8.682;2022-12-07T10:58:29;100008.00;;;11.80
65569;BMP180;52211;50.154;8.682;2022-12-07T11:01:33;100001.00;;;11.90
65569;BMP180;52211;50.154;8.682;2022-12-07T11:07:49;99990.00;;;12.00
65569;BMP180;52211;50.154;8.682;2022-12-07T11:10:41;100004.00;;;12.10
65569;BMP180;52211;50.154;8.682;2022-12-07T11:13:40;100000.00;;;12.10
65569;BMP180;52211;50.154;8.682;2022-12-07T11:22:36;99986.00;;;12.20
65569;BMP180;52211;50.154;8.682;2022-12-07T11:25:32;99979.00;;;12.20
65569;BMP180;52211;50.154;8.682;2022-12-07T11:31:28;99982.00;;;12.20
65569;BMP180;52211;50.154;8.682;2022-12-07T11:36:40;99971.00;;;12.20
65569;BMP180;52211;50.154;8.682;2022-12-07T11:39:34;99977.00;;;12.30
65569;BMP180;52211;50.154;8.682;2022-12-07T11:42:14;99967.00;;;12.30
65569;BMP180;52211;50.154;8.682;2022-12-07T11:44:55;99968.00;;;12.40
65569;BMP180;52211;50.154;8.682;2022-12-07T11:52:58;99956.00;;;12.40
65569;BMP180;52211;50.154;8.682;2022-12-07T11:55:54;99946.00;;;12.30
65569;BMP180;52211;50.154;8.682;2022-12-07T11:59:02;99953.00;;;12.30
65569;BMP180;52211;50.154;8.682;2022-12-07T12:01:50;99946.00;;;12.30
65569;BMP180;52211;50.154;8.682;2022-12-07T12:07:44;99942.00;;;12.90
65569;BMP180;52211;50.154;8.682;2022-12-07T12:17:15;99920.00;;;13.10
65569;BMP180;52211;50.154;8.682;2022-12-07T12:22:36;99918.00;;;13.00
65569;BMP180;52211;50.154;8.682;2022-12-07T12:25:25;99912.00;;;13.00
65569;BMP180;52211;50.154;8.682;2022-12-07T12:27:56;99918.00;;;13.20
65569;BMP180;52211;50.154;8.682;2022-12-07T12:30:38;99920.00;;;13.40
65569;BMP180;52211;50.154;8.682;2022-12-07T12:33:29;99917.00;;;13.50
65569;BMP180;52211;50.154;8.682;2022-12-07T12:47:43;99916.00;;;13.40
65569;BMP180;52211;50.154;8.682;2022-12-07T12:53:03;99918.00;;;13.20
65569;BMP180;52211;50.154;8.682;2022-12-07T13:01:25;99914.00;;;13.20
65569;BMP180;52211;50.154;8.682;2022-12-07T13:03:40;99915.00;;;13.20
65569;BMP180;52211;50.154;8.682;2022-12-07T13:09:01;99914.00;;;13.10
65569;BMP180;52211;50.154;8.682;2022-12-07T13:11:44;99906.00;;;13.00
65569;BMP180;52211;50.154;8.682;2022-12-07T13:14:51;99899.00;;;12.90
65569;BMP180;52211;50.154;8.682;2022-12-07T13:20:04;99898.00;;;12.70
65569;BMP180;52211;50.154;8.682;2022-12-07T13:25:27;99906.00;;;12.70
65569;BMP180;52211;50.154;8.682;2022-12-07T13:28:07;99906.00;;;12.70
65569;BMP180;52211;50.154;8.682;2022-12-07T13:33:28;99901.00;;;12.80
65569;BMP180;52211;50.154;8.682;2022-12-07T13:35:56;99884.00;;;12.80
65569;BMP180;52211;50.154;8.682;2022-12-07T13:38:29;99895.00;;;12.80
65569;BMP180;52211;50.154;8.682;2022-12-07T13:41:12;99902.00;;;12.80
65569;BMP180;52211;50.154;8.682;2022-12-07T13:43:50;99892.00;;;12.80
65569;BMP180;52211;50.154;8.682;2022-12-07T13:49:29;99904.00;;;12.90
65569;BMP180;52211;50.154;8.682;2022-12-07T13:55:05;99891.00;;;12.90
65569;BMP180;52211;50.154;8.682;2022-12-07T13:57:38;99894.00;;;12.80
65569;BMP180;52211;50.154;8.682;2022-12-07T14:00:34;99900.00;;;12.70
65569;BMP180;52211;50.154;8.682;2022-12-07T14:03:31;99904.00;;;12.70
65569;BMP180;52211;50.154;8.682;2022-12-07T14:06:26;99892.00;;;12.60
65569;BMP180;52211;50.154;8.682;2022-12-07T14:09:22;99906.00;;;12.50
65569;BMP180;52211;50.154;8.682;2022-12-07T14:11:53;99895.00;;;12.50
65569;BMP180;52211;50.154;8.682;2022-12-07T14:14:30;99890.00;;;12.50
65569;BMP180;52211;50.154;8.682;2022-12-07T14:17:24;99889.00;;;12.40
65569;BMP180;52211;50.154;8.682;2022-12-07T14:19:58;99894.00;;;12.40
65569;BMP180;52211;50.154;8.682;2022-12-07T14:22:35;99889.00;;;12.40
65569;BMP180;52211;50.154;8.682;2022-12-07T14:25:26;99892.00;;;12.30
65569;BMP180;52211;50.154;8.682;2022-12-07T14:28:02;99891.00;;;12.30
65569;BMP180;52211;50.154;8.682;2022-12-07T14:30:32;99884.00;;;12.30
65569;BMP180;52211;50.154;8.682;2022-12-07T14:33:10;99881.00;;;12.30
65569;BMP180;52211;50.154;8.682;2022-12-07T14:35:37;99884.00;;;12.20
65569;BMP180;52211;50.154;8.682;2022-12-07T14:38:07;99885.00;;;12.20
65569;BMP180;52211;50.154;8.682;2022-12-07T14:40:34;99893.00;;;12.10
65569;BMP180;52211;50.154;8.682;2022-12-07T14:43:11;99886.00;;;12.10
65569;BMP180;52211;50.154;8.682;2022-12-07T14:45:39;99890.00;;;12.00
65569;BMP180;52211;50.154;8.682;2022-12-07T14:48:15;99881.00;;;11.90
65569;BMP180;52211;50.154;8.682;2022-12-07T14:51:03;99886.00;;;11.80
65569;BMP180;52211;50.154;8.682;2022-12-07T14:53:54;99882.00;;;11.70
65569;BMP180;52211;50.154;8.682;2022-12-07T14:56:26;99874.00;;;11.60
65569;BMP180;52211;50.154;8.682;2022-12-07T14:58:59;99881.00;;;11.60
65569;BMP180;52211;50.154;8.682;2022-12-07T15:01:30;99879.00;;;11.60
65569;BMP180;52211;50.154;8.682;2022-12-07T15:04:01;99879.00;;;11.50
65569;BMP180;52211;50.154;8.682;2022-12-07T15:06:31;99885.00;;;11.40
65569;BMP180;52211;50.154;8.682;2022-12-07T15:09:03;99878.00;;;11.40
65569;BMP180;52211;50.154;8.682;2022-12-07T15:11:32;99878.00;;;11.40
65569;BMP180;52211;50.154;8.682;2022-12-07T15:13:59;99881.00;;;11.30
65569;BMP180;52211;50.154;8.682;2022-12-07T15:16:40;99876.00;;;11.30
65569;BMP180;52211;50.154;8.682;2022-12-07T15:19:27;99863.00;;;11.30
65569;BMP180;52211;50.154;8.682;2022-12-07T15:21:59;99876.00;;;11.20
65569;BMP180;52211;50.154;8.682;2022-12-07T15:24:26;99872.00;;;11.20
65569;BMP180;52211;50.154;8.682;2022-12-07T15:26:53;99868.00;;;11.20
65569;BMP180;52211;50.154;8.682;2022-12-07T15:29:25;99868.00;;;11.10
65569;BMP180;52211;50.154;8.682;2022-12-07T15:31:52;99865.00;;;11.10
65569;BMP180;52211;50.154;8.682;2022-12-07T15:34:25;99875.00;;;11.10
65569;BMP180;52211;50.154;8.682;2022-12-07T15:37:08;99869.00;;;11.10
65569;BMP180;52211;50.154;8.682;2022-12-07T15:39:36;99867.00;;;11.10
65569;BMP180;52211;50.154;8.682;2022-12-07T15:42:05;99863.00;;;11.10
65569;BMP180;52211;50.154;8.682;2022-12-07T15:44:34;99859.00;;;11.00
65569;BMP180;52211;50.154;8.682;2022-12-07T15:47:22;99856.00;;;11.00
65569;BMP180;52211;50.154;8.682;2022-12-07T15:49:49;99860.00;;;11.00
65569;BMP180;52211;50.154;8.682;2022-12-07T15:52:18;99855.00;;;11.00
65569;BMP180;52211;50.154;8.682;2022-12-07T15:54:46;99853.00;;;10.90
65569;BMP180;52211;50.154;8.682;2022-12-07T15:57:14;99860.00;;;10.90
65569;BMP180;52211;50.154;8.682;2022-12-07T15:59:46;99852.00;;;10.90
65569;BMP180;52211;50.154;8.682;2022-12-07T16:02:13;99851.00;;;10.90
65569;BMP180;52211;50.154;8.682;2022-12-07T16:04:41;99851.00;;;10.90
65569;BMP180;52211;50.154;8.682;2022-12-07T16:07:08;99844.00;;;10.90
65569;BMP180;52211;50.154;8.682;2022-12-07T16:09:42;99841.00;;;10.90
65569;BMP180;52211;50.154;8.682;2022-12-07T16:12:13;99842.00;;;10.90
65569;BMP180;52211;50.154;8.682;2022-12-07T16:14:40;99836.00;;;10.80
65569;BMP180;52211;50.154;8.682;2022-12-07T16:17:15;99829.00;;;10.80
65569;BMP180;52211;50.154;8.682;2022-12-07T16:19:44;99839.00;;;10.80
65569;BMP180;52211;50.154;8.682;2022-12-07T16:22:11;99828.00;;;10.80
65569;BMP180;52211;50.154;8.682;2022-12-07T16:24:44;99831.00;;;10.80
65569;BMP180;52211;50.154;8.682;2022-12-07T16:27:11;99835.00;;;10.70
65569;BMP180;52211;50.154;8.682;2022-12-07T16:29:40;99838.00;;;10.70
65569;BMP180;52211;50.154;8.682;2022-12-07T16:32:10;99831.00;;;10.70
65569;BMP180;52211;50.154;8.682;2022-12-07T16:34:36;99834.00;;;10.70